sensor_id;sensor_type;location;lat;lon;timestamp;P1;durP1;ratioP1;P2;durP2;ratioP2
22320;SDS011;11328;53.928;18.522;2023-05-07T00:02:00;19.48;;;9.57;;
22320;SDS011;11328;53.928;18.522;2023-05-07T00:04:27;20.70;;;9.82;;
22320;SDS011;11328;53.928;18.522;2023-05-07T00:06:54;18.58;;;9.18;;
22320;SDS011;11328;53.928;18.522;2023-05-07T00:09:22;16.42;;;9.10;;
22320;SDS011;11328;53.928;18.522;2023-05-07T00:11:48;17.63;;;9.98;;
22320;SDS011;11328;53.928;18.522;2023-05-07T00:14:15;21.75;;;9.80;;
22320;SDS011;11328;53.928;18.522;2023-05-07T00:16:42;15.98;;;8.95;;
22320;SDS011;11328;53.928;18.522;2023-05-07T00:19:09;17.17;;;9.25;;
22320;SDS011;11328;53.928;18.522;2023-05-07T00:21:37;18.10;;;9.45;;
22320;SDS011;11328;53.928;18.522;2023-05-07T00:24:04;18.55;;;10.05;;
22320;SDS011;11328;53.928;18.522;2023-05-07T00:26:31;15.77;;;8.55;;
22320;SDS011;11328;53.928;18.522;2023-05-07T00:28:57;20.52;;;9.55;;
22320;SDS011;11328;53.928;18.522;2023-05-07T00:31:24;19.52;;;9.20;;
22320;SDS011;11328;53.928;18.522;2023-05-07T00:33:51;20.48;;;11.52;;
22320;SDS011;11328;53.928;18.522;2023-05-07T00:36:18;21.35;;;10.95;;
22320;SDS011;11328;53.928;18.522;2023-05-07T00:38:45;17.02;;;9.07;;
22320;SDS011;11328;53.928;18.522;2023-05-07T00:41:12;19.13;;;9.52;;
22320;SDS011;11328;53.928;18.522;2023-05-07T00:43:39;20.20;;;9.60;;
22320;SDS011;11328;53.928;18.522;2023-05-07T00:46:06;25.55;;;10.43;;
22320;SDS011;11328;53.928;18.522;2023-05-07T00:48:33;24.75;;;11.32;;
22320;SDS011;11328;53.928;18.522;2023-05-07T00:50:59;20.08;;;10.23;;
22320;SDS011;11328;53.928;18.522;2023-05-07T00:53:26;20.63;;;11.32;;
22320;SDS011;11328;53.928;18.522;2023-05-07T00:55:54;23.83;;;9.82;;
22320;SDS011;11328;53.928;18.522;2023-05-07T00:58:21;20.67;;;9.80;;
22320;SDS011;11328;53.928;18.522;2023-05-07T01:00:49;16.65;;;8.82;;
22320;SDS011;11328;53.928;18.522;2023-05-07T01:03:16;18.95;;;9.25;;
22320;SDS011;11328;53.928;18.522;2023-05-07T01:05:44;22.40;;;10.90;;
22320;SDS011;11328;53.928;18.522;2023-05-07T01:08:14;31.30;;;16.88;;
22320;SDS011;11328;53.928;18.522;2023-05-07T01:10:42;19.40;;;9.60;;
22320;SDS011;11328;53.928;18.522;2023-05-07T01:13:11;18.63;;;9.50;;
22320;SDS011;11328;53.928;18.522;2023-05-07T01:15:40;21.50;;;11.05;;
22320;SDS011;11328;53.928;18.522;2023-05-07T01:18:07;20.00;;;9.52;;
22320;SDS011;11328;53.928;18.522;2023-05-07T01:20:34;19.05;;;10.00;;
22320;SDS011;11328;53.928;18.522;2023-05-07T01:23:01;15.88;;;8.98;;
22320;SDS011;11328;53.928;18.522;2023-05-07T01:25:32;16.10;;;8.27;;
22320;SDS011;11328;53.928;18.522;2023-05-07T01:28:00;12.02;;;7.63;;
22320;SDS011;11328;53.928;18.522;2023-05-07T01:30:27;15.40;;;8.30;;
22320;SDS011;11328;53.928;18.522;2023-05-07T01:33:01;14.57;;;7.10;;
22320;SDS011;11328;53.928;18.522;2023-05-07T01:35:40;15.50;;;8.27;;
22320;SDS011;11328;53.928;18.522;2023-05-07T01:38:12;18.65;;;7.70;;
22320;SDS011;11328;53.928;18.522;2023-05-07T01:40:39;17.70;;;8.45;;
22320;SDS011;11328;53.928;18.522;2023-05-07T01:43:07;14.18;;;7.85;;
22320;SDS011;11328;53.928;18.522;2023-05-07T01:45:35;19.33;;;12.32;;
22320;SDS011;11328;53.928;18.522;2023-05-07T01:48:03;13.95;;;7.75;;
22320;SDS011;11328;53.928;18.522;2023-05-07T01:50:30;14.80;;;9.30;;
22320;SDS011;11328;53.928;18.522;2023-05-07T01:52:58;19.75;;;8.20;;
22320;SDS011;11328;53.928;18.522;2023-05-07T01:55:25;22.90;;;10.85;;
22320;SDS011;11328;53.928;18.522;2023-05-07T01:57:52;13.60;;;8.45;;
22320;SDS011;11328;53.928;18.522;2023-05-07T02:00:19;14.07;;;7.85;;
22320;SDS011;11328;53.928;18.522;2023-05-07T02:02:46;17.80;;;10.18;;
22320;SDS011;11328;53.928;18.522;2023-05-07T02:05:13;17.33;;;8.68;;
22320;SDS011;11328;53.928;18.522;2023-05-07T02:07:40;19.27;;;8.38;;
22320;SDS011;11328;53.928;18.522;2023-05-07T02:10:07;13.80;;;7.90;;
22320;SDS011;11328;53.928;18.522;2023-05-07T02:12:35;18.55;;;9.18;;
22320;SDS011;11328;53.928;18.522;2023-05-07T02:15:02;13.38;;;7.80;;
22320;SDS011;11328;53.928;18.522;2023-05-07T02:17:29;18.75;;;10.57;;
22320;SDS011;11328;53.928;18.522;2023-05-07T02:19:58;16.52;;;8.70;;
22320;SDS011;11328;53.928;18.522;2023-05-07T02:22:25;15.02;;;7.88;;
22320;SDS011;11328;53.928;18.522;2023-05-07T02:24:52;15.57;;;7.57;;
22320;SDS011;11328;53.928;18.522;2023-05-07T02:27:19;15.05;;;7.43;;
22320;SDS011;11328;53.928;18.522;2023-05-07T02:29:46;14.68;;;7.63;;
22320;SDS011;11328;53.928;18.522;2023-05-07T02:32:13;13.52;;;7.82;;
22320;SDS011;11328;53.928;18.522;2023-05-07T02:34:40;14.63;;;7.57;;
22320;SDS011;11328;53.928;18.522;2023-05-07T02:37:07;15.77;;;8.00;;
22320;SDS011;11328;53.928;18.522;2023-05-07T02:39:34;15.25;;;7.60;;
22320;SDS011;11328;53.928;18.522;2023-05-07T02:42:01;15.10;;;8.27;;
22320;SDS011;11328;53.928;18.522;2023-05-07T02:44:28;19.52;;;10.10;;
22320;SDS011;11328;53.928;18.522;2023-05-07T02:46:57;16.00;;;8.38;;
22320;SDS011;11328;53.928;18.522;2023-05-07T02:49:24;14.35;;;7.47;;
22320;SDS011;11328;53.928;18.522;2023-05-07T02:51:51;15.70;;;7.65;;
22320;SDS011;11328;53.928;18.522;2023-05-07T02:54:18;13.95;;;7.68;;
22320;SDS011;11328;53.928;18.522;2023-05-07T02:56:44;16.33;;;7.50;;
22320;SDS011;11328;53.928;18.522;2023-05-07T02:59:11;17.08;;;7.60;;
22320;SDS011;11328;53.928;18.522;2023-05-07T03:01:38;16.67;;;7.53;;
22320;SDS011;11328;53.928;18.522;2023-05-07T03:04:05;14.25;;;7.50;;
22320;SDS011;11328;53.928;18.522;2023-05-07T03:06:32;14.52;;;6.40;;
22320;SDS011;11328;53.928;18.522;2023-05-07T03:08:59;13.90;;;8.25;;
22320;SDS011;11328;53.928;18.522;2023-05-07T03:11:26;13.63;;;6.70;;
22320;SDS011;11328;53.928;18.522;2023-05-07T03:13:53;14.90;;;6.88;;
22320;SDS011;11328;53.928;18.522;2023-05-07T03:16:19;13.32;;;6.20;;
22320;SDS011;11328;53.928;18.522;2023-05-07T03:18:47;13.18;;;6.50;;
22320;SDS011;11328;53.928;18.522;2023-05-07T03:21:14;15.40;;;6.57;;
22320;SDS011;11328;53.928;18.522;2023-05-07T03:23:40;15.50;;;6.82;;
22320;SDS011;11328;53.928;18.522;2023-05-07T03:26:07;43.28;;;8.77;;
22320;SDS011;11328;53.928;18.522;2023-05-07T03:28:34;15.85;;;7.00;;
22320;SDS011;11328;53.928;18.522;2023-05-07T03:31:01;15.23;;;6.55;;
22320;SDS011;11328;53.928;18.522;2023-05-07T03:33:28;14.98;;;6.53;;
22320;SDS011;11328;53.928;18.522;2023-05-07T03:35:55;11.50;;;5.88;;
22320;SDS011;11328;53.928;18.522;2023-05-07T03:38:22;16.33;;;6.10;;
22320;SDS011;11328;53.928;18.522;2023-05-07T03:40:49;12.73;;;5.90;;
22320;SDS011;11328;53.928;18.522;2023-05-07T03:43:16;18.40;;;6.43;;
22320;SDS011;11328;53.928;18.522;2023-05-07T03:45:43;15.88;;;6.22;;
22320;SDS011;11328;53.928;18.522;2023-05-07T03:48:09;22.15;;;11.52;;
22320;SDS011;11328;53.928;18.522;2023-05-07T03:50:37;19.35;;;13.07;;
22320;SDS011;11328;53.928;18.522;2023-05-07T03:53:04;13.70;;;6.85;;
22320;SDS011;11328;53.928;18.522;2023-05-07T03:55:31;11.60;;;6.03;;
22320;SDS011;11328;53.928;18.522;2023-05-07T03:57:58;12.70;;;6.30;;
22320;SDS011;11328;53.928;18.522;2023-05-07T04:00:25;12.20;;;5.75;;
22320;SDS011;11328;53.928;18.522;2023-05-07T04:02:52;13.07;;;5.70;;
22320;SDS011;11328;53.928;18.522;2023-05-07T04:05:19;21.20;;;6.45;;
22320;SDS011;11328;53.928;18.522;2023-05-07T04:07:45;18.05;;;9.18;;
22320;SDS011;11328;53.928;18.522;2023-05-07T04:10:12;14.35;;;7.05;;
22320;SDS011;11328;53.928;18.522;2023-05-07T04:12:39;11.43;;;5.60;;
22320;SDS011;11328;53.928;18.522;2023-05-07T04:15:06;12.05;;;6.25;;
22320;SDS011;11328;53.928;18.522;2023-05-07T04:17:34;11.35;;;5.63;;
22320;SDS011;11328;53.928;18.522;2023-05-07T04:20:01;17.13;;;6.53;;
22320;SDS011;11328;53.928;18.522;2023-05-07T04:22:29;16.13;;;5.85;;
22320;SDS011;11328;53.928;18.522;2023-05-07T04:24:56;12.25;;;6.03;;
22320;SDS011;11328;53.928;18.522;2023-05-07T04:27:22;11.65;;;5.15;;
22320;SDS011;11328;53.928;18.522;2023-05-07T04:29:49;13.20;;;5.20;;
22320;SDS011;11328;53.928;18.522;2023-05-07T04:32:17;11.25;;;5.28;;
22320;SDS011;11328;53.928;18.522;2023-05-07T04:34:44;12.18;;;6.00;;
22320;SDS011;11328;53.928;18.522;2023-05-07T04:37:12;10.77;;;5.82;;
22320;SDS011;11328;53.928;18.522;2023-05-07T04:39:39;10.45;;;5.28;;
22320;SDS011;11328;53.928;18.522;2023-05-07T04:42:05;9.63;;;4.90;;
22320;SDS011;11328;53.928;18.522;2023-05-07T04:44:35;9.65;;;4.57;;
22320;SDS011;11328;53.928;18.522;2023-05-07T04:47:03;12.15;;;5.00;;
22320;SDS011;11328;53.928;18.522;2023-05-07T04:49:30;12.02;;;5.93;;
22320;SDS011;11328;53.928;18.522;2023-05-07T04:51:57;11.57;;;5.78;;
22320;SDS011;11328;53.928;18.522;2023-05-07T04:54:24;12.50;;;5.15;;
22320;SDS011;11328;53.928;18.522;2023-05-07T04:56:51;10.35;;;5.05;;
22320;SDS011;11328;53.928;18.522;2023-05-07T04:59:18;10.68;;;4.70;;
22320;SDS011;11328;53.928;18.522;2023-05-07T05:01:45;8.63;;;5.35;;
22320;SDS011;11328;53.928;18.522;2023-05-07T05:04:12;14.23;;;4.85;;
22320;SDS011;11328;53.928;18.522;2023-05-07T05:06:39;9.57;;;4.40;;
22320;SDS011;11328;53.928;18.522;2023-05-07T05:09:06;15.48;;;5.22;;
22320;SDS011;11328;53.928;18.522;2023-05-07T05:11:33;11.05;;;4.80;;
22320;SDS011;11328;53.928;18.522;2023-05-07T05:14:00;9.55;;;4.30;;
22320;SDS011;11328;53.928;18.522;2023-05-07T05:16:28;12.50;;;4.72;;
22320;SDS011;11328;53.928;18.522;2023-05-07T05:18:55;8.50;;;4.57;;
22320;SDS011;11328;53.928;18.522;2023-05-07T05:21:22;12.15;;;4.72;;
22320;SDS011;11328;53.928;18.522;2023-05-07T05:23:49;14.52;;;4.35;;
22320;SDS011;11328;53.928;18.522;2023-05-07T05:26:16;10.98;;;4.10;;
22320;SDS011;11328;53.928;18.522;2023-05-07T05:28:43;10.75;;;4.93;;
22320;SDS011;11328;53.928;18.522;2023-05-07T05:31:10;10.82;;;4.30;;
22320;SDS011;11328;53.928;18.522;2023-05-07T05:33:36;10.68;;;4.53;;
22320;SDS011;11328;53.928;18.522;2023-05-07T05:36:03;8.90;;;4.78;;
22320;SDS011;11328;53.928;18.522;2023-05-07T05:38:31;12.10;;;4.45;;
22320;SDS011;11328;53.928;18.522;2023-05-07T05:40:58;10.25;;;4.20;;
22320;SDS011;11328;53.928;18.522;2023-05-07T05:43:25;12.75;;;4.28;;
22320;SDS011;11328;53.928;18.522;2023-05-07T05:45:51;11.30;;;4.55;;
22320;SDS011;11328;53.928;18.522;2023-05-07T05:48:18;12.10;;;4.25;;
22320;SDS011;11328;53.928;18.522;2023-05-07T05:50:45;9.25;;;4.38;;
22320;SDS011;11328;53.928;18.522;2023-05-07T05:53:12;8.73;;;4.30;;
22320;SDS011;11328;53.928;18.522;2023-05-07T05:55:39;9.80;;;4.22;;
22320;SDS011;11328;53.928;18.522;2023-05-07T05:58:07;12.90;;;4.15;;
22320;SDS011;11328;53.928;18.522;2023-05-07T06:00:35;11.52;;;4.35;;
22320;SDS011;11328;53.928;18.522;2023-05-07T06:03:02;8.48;;;4.05;;
22320;SDS011;11328;53.928;18.522;2023-05-07T06:05:29;9.40;;;4.47;;
22320;SDS011;11328;53.928;18.522;2023-05-07T06:07:56;13.57;;;4.53;;
22320;SDS011;11328;53.928;18.522;2023-05-07T06:10:23;9.00;;;4.10;;
22320;SDS011;11328;53.928;18.522;2023-05-07T06:12:50;8.10;;;3.75;;
22320;SDS011;11328;53.928;18.522;2023-05-07T06:15:17;8.18;;;3.95;;
22320;SDS011;11328;53.928;18.522;2023-05-07T06:17:44;9.75;;;4.28;;
22320;SDS011;11328;53.928;18.522;2023-05-07T06:20:11;9.43;;;3.92;;
22320;SDS011;11328;53.928;18.522;2023-05-07T06:22:38;9.05;;;3.63;;
22320;SDS011;11328;53.928;18.522;2023-05-07T06:25:05;9.02;;;3.83;;
22320;SDS011;11328;53.928;18.522;2023-05-07T06:27:33;8.65;;;4.22;;
22320;SDS011;11328;53.928;18.522;2023-05-07T06:30:00;7.53;;;3.95;;
22320;SDS011;11328;53.928;18.522;2023-05-07T06:32:26;17.23;;;4.32;;
22320;SDS011;11328;53.928;18.522;2023-05-07T06:34:53;118.28;;;9.02;;
22320;SDS011;11328;53.928;18.522;2023-05-07T06:37:23;9.10;;;4.15;;
22320;SDS011;11328;53.928;18.522;2023-05-07T06:39:51;11.35;;;4.20;;
22320;SDS011;11328;53.928;18.522;2023-05-07T06:42:18;9.35;;;3.80;;
22320;SDS011;11328;53.928;18.522;2023-05-07T06:44:45;9.68;;;4.10;;
22320;SDS011;11328;53.928;18.522;2023-05-07T06:47:12;6.68;;;3.88;;
22320;SDS011;11328;53.928;18.522;2023-05-07T06:49:41;9.45;;;4.07;;
22320;SDS011;11328;53.928;18.522;2023-05-07T06:52:08;12.55;;;4.45;;
22320;SDS011;11328;53.928;18.522;2023-05-07T06:54:35;8.07;;;3.90;;
22320;SDS011;11328;53.928;18.522;2023-05-07T06:57:02;10.55;;;4.05;;
22320;SDS011;11328;53.928;18.522;2023-05-07T06:59:29;12.57;;;4.22;;
22320;SDS011;11328;53.928;18.522;2023-05-07T07:01:56;10.45;;;4.03;;
22320;SDS011;11328;53.928;18.522;2023-05-07T07:04:23;8.15;;;3.80;;
22320;SDS011;11328;53.928;18.522;2023-05-07T07:06:52;8.50;;;3.97;;
22320;SDS011;11328;53.928;18.522;2023-05-07T07:09:20;8.82;;;4.03;;
22320;SDS011;11328;53.928;18.522;2023-05-07T07:11:49;7.90;;;3.50;;
22320;SDS011;11328;53.928;18.522;2023-05-07T07:14:16;11.27;;;4.03;;
22320;SDS011;11328;53.928;18.522;2023-05-07T07:16:42;11.15;;;3.85;;
22320;SDS011;11328;53.928;18.522;2023-05-07T07:19:09;11.57;;;3.70;;
22320;SDS011;11328;53.928;18.522;2023-05-07T07:21:37;9.02;;;3.90;;
22320;SDS011;11328;53.928;18.522;2023-05-07T07:24:04;8.98;;;4.32;;
22320;SDS011;11328;53.928;18.522;2023-05-07T07:26:31;10.90;;;3.80;;
22320;SDS011;11328;53.928;18.522;2023-05-07T07:28:58;7.60;;;3.45;;
22320;SDS011;11328;53.928;18.522;2023-05-07T07:31:24;9.27;;;3.40;;
22320;SDS011;11328;53.928;18.522;2023-05-07T07:33:51;10.77;;;3.67;;
22320;SDS011;11328;53.928;18.522;2023-05-07T07:36:18;10.77;;;3.55;;
22320;SDS011;11328;53.928;18.522;2023-05-07T07:38:48;8.60;;;3.40;;
22320;SDS011;11328;53.928;18.522;2023-05-07T07:41:15;8.07;;;3.38;;
22320;SDS011;11328;53.928;18.522;2023-05-07T07:43:42;6.32;;;3.53;;
22320;SDS011;11328;53.928;18.522;2023-05-07T07:46:09;7.10;;;3.80;;
22320;SDS011;11328;53.928;18.522;2023-05-07T07:48:36;8.35;;;3.70;;
22320;SDS011;11328;53.928;18.522;2023-05-07T07:51:03;11.63;;;4.00;;
22320;SDS011;11328;53.928;18.522;2023-05-07T07:53:30;9.65;;;3.78;;
22320;SDS011;11328;53.928;18.522;2023-05-07T07:55:57;7.78;;;3.58;;
22320;SDS011;11328;53.928;18.522;2023-05-07T07:58:25;5.60;;;3.20;;
22320;SDS011;11328;53.928;18.522;2023-05-07T08:00:51;6.95;;;3.63;;
22320;SDS011;11328;53.928;18.522;2023-05-07T08:03:19;8.93;;;3.22;;
22320;SDS011;11328;53.928;18.522;2023-05-07T08:05:46;8.73;;;3.13;;
22320;SDS011;11328;53.928;18.522;2023-05-07T08:08:13;12.27;;;3.78;;
22320;SDS011;11328;53.928;18.522;2023-05-07T08:10:40;8.32;;;3.60;;
22320;SDS011;11328;53.928;18.522;2023-05-07T08:13:07;6.30;;;3.17;;
22320;SDS011;11328;53.928;18.522;2023-05-07T08:15:34;7.00;;;3.13;;
22320;SDS011;11328;53.928;18.522;2023-05-07T08:18:01;6.50;;;3.10;;
22320;SDS011;11328;53.928;18.522;2023-05-07T08:20:29;8.02;;;3.30;;
22320;SDS011;11328;53.928;18.522;2023-05-07T08:22:56;9.38;;;3.20;;
22320;SDS011;11328;53.928;18.522;2023-05-07T08:25:23;8.55;;;3.58;;
22320;SDS011;11328;53.928;18.522;2023-05-07T08:27:50;7.28;;;3.13;;
22320;SDS011;11328;53.928;18.522;2023-05-07T08:30:16;10.52;;;3.30;;
22320;SDS011;11328;53.928;18.522;2023-05-07T08:32:43;6.32;;;3.13;;
22320;SDS011;11328;53.928;18.522;2023-05-07T08:35:10;7.78;;;3.47;;
22320;SDS011;11328;53.928;18.522;2023-05-07T08:37:37;6.90;;;3.40;;
22320;SDS011;11328;53.928;18.522;2023-05-07T08:40:04;6.90;;;2.85;;
22320;SDS011;11328;53.928;18.522;2023-05-07T08:42:36;8.40;;;3.00;;
22320;SDS011;11328;53.928;18.522;2023-05-07T08:45:04;5.68;;;3.00;;
22320;SDS011;11328;53.928;18.522;2023-05-07T08:47:43;6.47;;;3.10;;
22320;SDS011;11328;53.928;18.522;2023-05-07T08:50:13;9.02;;;3.00;;
22320;SDS011;11328;53.928;18.522;2023-05-07T08:52:40;7.15;;;2.90;;
22320;SDS011;11328;53.928;18.522;2023-05-07T08:55:07;12.40;;;2.90;;
22320;SDS011;11328;53.928;18.522;2023-05-07T08:57:36;4.88;;;2.85;;
22320;SDS011;11328;53.928;18.522;2023-05-07T09:00:05;5.13;;;2.28;;
22320;SDS011;11328;53.928;18.522;2023-05-07T09:02:37;6.85;;;2.30;;
22320;SDS011;11328;53.928;18.522;2023-05-07T09:05:04;5.72;;;2.60;;
22320;SDS011;11328;53.928;18.522;2023-05-07T09:07:31;6.28;;;3.03;;
22320;SDS011;11328;53.928;18.522;2023-05-07T09:10:00;6.55;;;2.92;;
22320;SDS011;11328;53.928;18.522;2023-05-07T09:12:30;5.72;;;2.50;;
22320;SDS011;11328;53.928;18.522;2023-05-07T09:14:58;8.52;;;2.65;;
22320;SDS011;11328;53.928;18.522;2023-05-07T09:17:26;9.23;;;2.80;;
22320;SDS011;11328;53.928;18.522;2023-05-07T09:19:53;5.75;;;2.90;;
22320;SDS011;11328;53.928;18.522;2023-05-07T09:22:20;193.70;;;14.10;;
22320;SDS011;11328;53.928;18.522;2023-05-07T09:24:48;6.68;;;3.17;;
22320;SDS011;11328;53.928;18.522;2023-05-07T09:27:17;8.63;;;2.78;;
22320;SDS011;11328;53.928;18.522;2023-05-07T09:29:44;6.65;;;2.55;;
22320;SDS011;11328;53.928;18.522;2023-05-07T09:32:11;5.25;;;2.50;;
22320;SDS011;11328;53.928;18.522;2023-05-07T09:34:39;8.82;;;2.88;;
22320;SDS011;11328;53.928;18.522;2023-05-07T09:37:07;5.57;;;2.53;;
22320;SDS011;11328;53.928;18.522;2023-05-07T09:42:14;7.20;;;2.92;;
22320;SDS011;11328;53.928;18.522;2023-05-07T09:44:41;4.70;;;2.20;;
22320;SDS011;11328;53.928;18.522;2023-05-07T09:47:10;28.80;;;3.58;;
22320;SDS011;11328;53.928;18.522;2023-05-07T09:49:46;11.50;;;2.63;;
22320;SDS011;11328;53.928;18.522;2023-05-07T09:52:14;7.10;;;2.35;;
22320;SDS011;11328;53.928;18.522;2023-05-07T09:54:42;14.82;;;3.20;;
22320;SDS011;11328;53.928;18.522;2023-05-07T09:57:13;6.18;;;2.20;;
22320;SDS011;11328;53.928;18.522;2023-05-07T09:59:42;7.78;;;2.85;;
22320;SDS011;11328;53.928;18.522;2023-05-07T10:02:10;5.82;;;2.17;;
22320;SDS011;11328;53.928;18.522;2023-05-07T10:04:39;13.55;;;6.45;;
22320;SDS011;11328;53.928;18.522;2023-05-07T10:07:06;20.30;;;8.32;;
22320;SDS011;11328;53.928;18.522;2023-05-07T10:09:35;14.02;;;6.45;;
22320;SDS011;11328;53.928;18.522;2023-05-07T10:12:05;9.80;;;3.90;;
22320;SDS011;11328;53.928;18.522;2023-05-07T10:14:33;8.65;;;2.60;;
22320;SDS011;11328;53.928;18.522;2023-05-07T10:17:01;9.75;;;2.50;;
22320;SDS011;11328;53.928;18.522;2023-05-07T10:19:29;6.00;;;2.50;;
22320;SDS011;11328;53.928;18.522;2023-05-07T10:22:00;7.68;;;2.88;;
22320;SDS011;11328;53.928;18.522;2023-05-07T10:24:32;5.43;;;2.30;;
22320;SDS011;11328;53.928;18.522;2023-05-07T10:27:01;6.97;;;3.00;;
22320;SDS011;11328;53.928;18.522;2023-05-07T10:33:04;8.02;;;2.95;;
22320;SDS011;11328;53.928;18.522;2023-05-07T10:35:38;5.95;;;2.83;;
22320;SDS011;11328;53.928;18.522;2023-05-07T10:38:11;9.52;;;2.80;;
22320;SDS011;11328;53.928;18.522;2023-05-07T10:40:38;8.38;;;2.88;;
22320;SDS011;11328;53.928;18.522;2023-05-07T10:43:06;7.63;;;2.28;;
22320;SDS011;11328;53.928;18.522;2023-05-07T10:45:36;8.18;;;2.85;;
22320;SDS011;11328;53.928;18.522;2023-05-07T10:48:15;4.88;;;2.42;;
22320;SDS011;11328;53.928;18.522;2023-05-07T10:50:46;7.63;;;2.33;;
22320;SDS011;11328;53.928;18.522;2023-05-07T10:55:43;12.27;;;2.90;;
22320;SDS011;11328;53.928;18.522;2023-05-07T10:58:23;6.50;;;2.58;;
22320;SDS011;11328;53.928;18.522;2023-05-07T11:00:58;8.98;;;2.70;;
22320;SDS011;11328;53.928;18.522;2023-05-07T11:03:27;5.78;;;2.45;;
22320;SDS011;11328;53.928;18.522;2023-05-07T11:06:15;6.93;;;2.60;;
22320;SDS011;11328;53.928;18.522;2023-05-07T11:08:57;6.10;;;2.30;;
22320;SDS011;11328;53.928;18.522;2023-05-07T11:17:07;5.18;;;2.40;;
22320;SDS011;11328;53.928;18.522;2023-05-07T11:25:00;5.78;;;2.47;;
22320;SDS011;11328;53.928;18.522;2023-05-07T11:27:32;4.85;;;2.30;;
22320;SDS011;11328;53.928;18.522;2023-05-07T11:29:59;5.28;;;2.13;;
22320;SDS011;11328;53.928;18.522;2023-05-07T11:32:30;5.70;;;2.10;;
22320;SDS011;11328;53.928;18.522;2023-05-07T11:34:59;6.60;;;2.58;;
22320;SDS011;11328;53.928;18.522;2023-05-07T11:37:27;4.78;;;2.35;;
22320;SDS011;11328;53.928;18.522;2023-05-07T11:40:06;8.23;;;2.63;;
22320;SDS011;11328;53.928;18.522;2023-05-07T11:42:38;5.20;;;2.10;;
22320;SDS011;11328;53.928;18.522;2023-05-07T11:45:08;10.20;;;2.63;;
22320;SDS011;11328;53.928;18.522;2023-05-07T11:47:36;7.57;;;2.03;;
22320;SDS011;11328;53.928;18.522;2023-05-07T11:50:04;9.55;;;2.33;;
22320;SDS011;11328;53.928;18.522;2023-05-07T11:52:34;28.90;;;3.25;;
22320;SDS011;11328;53.928;18.522;2023-05-07T11:55:01;6.25;;;2.17;;
22320;SDS011;11328;53.928;18.522;2023-05-07T11:57:32;3.92;;;1.90;;
22320;SDS011;11328;53.928;18.522;2023-05-07T12:00:00;6.45;;;2.40;;
22320;SDS011;11328;53.928;18.522;2023-05-07T12:02:30;6.63;;;2.03;;
22320;SDS011;11328;53.928;18.522;2023-05-07T12:04:59;4.45;;;2.03;;
22320;SDS011;11328;53.928;18.522;2023-05-07T12:07:28;5.70;;;2.30;;
22320;SDS011;11328;53.928;18.522;2023-05-07T12:09:55;4.45;;;1.95;;
22320;SDS011;11328;53.928;18.522;2023-05-07T12:12:22;4.47;;;1.90;;
22320;SDS011;11328;53.928;18.522;2023-05-07T12:14:49;11.88;;;2.22;;
22320;SDS011;11328;53.928;18.522;2023-05-07T12:17:16;6.43;;;1.90;;
22320;SDS011;11328;53.928;18.522;2023-05-07T12:19:44;4.63;;;1.95;;
22320;SDS011;11328;53.928;18.522;2023-05-07T12:22:12;6.15;;;2.00;;
22320;SDS011;11328;53.928;18.522;2023-05-07T12:27:14;6.45;;;2.40;;
22320;SDS011;11328;53.928;18.522;2023-05-07T12:29:49;7.10;;;2.10;;
22320;SDS011;11328;53.928;18.522;2023-05-07T12:32:17;5.18;;;2.08;;
22320;SDS011;11328;53.928;18.522;2023-05-07T12:34:46;5.05;;;1.85;;
22320;SDS011;11328;53.928;18.522;2023-05-07T12:37:22;5.38;;;2.03;;
22320;SDS011;11328;53.928;18.522;2023-05-07T12:40:09;8.10;;;2.05;;
22320;SDS011;11328;53.928;18.522;2023-05-07T12:42:39;6.32;;;2.20;;
22320;SDS011;11328;53.928;18.522;2023-05-07T12:45:15;3.83;;;1.85;;
22320;SDS011;11328;53.928;18.522;2023-05-07T12:47:46;7.32;;;1.90;;
22320;SDS011;11328;53.928;18.522;2023-05-07T12:50:14;7.15;;;1.90;;
22320;SDS011;11328;53.928;18.522;2023-05-07T12:52:45;5.13;;;2.15;;
22320;SDS011;11328;53.928;18.522;2023-05-07T12:55:14;11.10;;;2.15;;
22320;SDS011;11328;53.928;18.522;2023-05-07T12:57:45;5.07;;;2.45;;
22320;SDS011;11328;53.928;18.522;2023-05-07T13:00:15;3.55;;;1.80;;
22320;SDS011;11328;53.928;18.522;2023-05-07T13:02:43;5.00;;;2.03;;
22320;SDS011;11328;53.928;18.522;2023-05-07T13:05:11;12.40;;;2.03;;
22320;SDS011;11328;53.928;18.522;2023-05-07T13:07:39;8.10;;;2.20;;
22320;SDS011;11328;53.928;18.522;2023-05-07T13:10:07;5.28;;;2.20;;
22320;SDS011;11328;53.928;18.522;2023-05-07T13:12:34;7.70;;;1.95;;
22320;SDS011;11328;53.928;18.522;2023-05-07T13:15:02;4.45;;;1.98;;
22320;SDS011;11328;53.928;18.522;2023-05-07T13:17:29;5.13;;;2.03;;
22320;SDS011;11328;53.928;18.522;2023-05-07T13:19:57;4.35;;;1.95;;
22320;SDS011;11328;53.928;18.522;2023-05-07T13:22:24;6.95;;;2.08;;
22320;SDS011;11328;53.928;18.522;2023-05-07T13:24:51;5.15;;;2.10;;
22320;SDS011;11328;53.928;18.522;2023-05-07T13:27:18;5.03;;;2.20;;
22320;SDS011;11328;53.928;18.522;2023-05-07T13:29:46;7.47;;;2.67;;
22320;SDS011;11328;53.928;18.522;2023-05-07T13:32:13;9.32;;;2.45;;
22320;SDS011;11328;53.928;18.522;2023-05-07T13:34:40;4.72;;;2.05;;
22320;SDS011;11328;53.928;18.522;2023-05-07T13:37:07;5.70;;;2.10;;
22320;SDS011;11328;53.928;18.522;2023-05-07T13:39:36;5.13;;;2.08;;
22320;SDS011;11328;53.928;18.522;2023-05-07T13:42:03;4.20;;;2.03;;
22320;SDS011;11328;53.928;18.522;2023-05-07T13:44:30;5.35;;;2.10;;
22320;SDS011;11328;53.928;18.522;2023-05-07T13:46:57;6.07;;;2.08;;
22320;SDS011;11328;53.928;18.522;2023-05-07T13:49:24;5.13;;;2.00;;
22320;SDS011;11328;53.928;18.522;2023-05-07T13:51:51;7.78;;;2.38;;
22320;SDS011;11328;53.928;18.522;2023-05-07T13:54:18;5.68;;;1.92;;
22320;SDS011;11328;53.928;18.522;2023-05-07T13:56:45;7.35;;;2.20;;
22320;SDS011;11328;53.928;18.522;2023-05-07T13:59:11;5.90;;;1.80;;
22320;SDS011;11328;53.928;18.522;2023-05-07T14:01:40;6.75;;;2.10;;
22320;SDS011;11328;53.928;18.522;2023-05-07T14:04:07;25.77;;;2.65;;
22320;SDS011;11328;53.928;18.522;2023-05-07T14:06:34;4.45;;;1.90;;
22320;SDS011;11328;53.928;18.522;2023-05-07T14:09:01;4.00;;;1.90;;
22320;SDS011;11328;53.928;18.522;2023-05-07T14:11:28;35.47;;;2.90;;
22320;SDS011;11328;53.928;18.522;2023-05-07T14:13:55;8.07;;;2.15;;
22320;SDS011;11328;53.928;18.522;2023-05-07T14:16:23;3.60;;;1.85;;
22320;SDS011;11328;53.928;18.522;2023-05-07T14:18:50;5.18;;;1.95;;
22320;SDS011;11328;53.928;18.522;2023-05-07T14:21:17;5.60;;;2.03;;
22320;SDS011;11328;53.928;18.522;2023-05-07T14:23:43;6.68;;;2.03;;
22320;SDS011;11328;53.928;18.522;2023-05-07T14:26:10;4.72;;;2.15;;
22320;SDS011;11328;53.928;18.522;2023-05-07T14:28:37;6.90;;;2.05;;
22320;SDS011;11328;53.928;18.522;2023-05-07T14:31:05;4.45;;;1.80;;
22320;SDS011;11328;53.928;18.522;2023-05-07T14:33:32;5.50;;;2.10;;
22320;SDS011;11328;53.928;18.522;2023-05-07T14:36:00;6.28;;;1.88;;
22320;SDS011;11328;53.928;18.522;2023-05-07T14:38:26;4.45;;;1.77;;
22320;SDS011;11328;53.928;18.522;2023-05-07T14:40:53;5.47;;;2.03;;
22320;SDS011;11328;53.928;18.522;2023-05-07T14:43:22;17.42;;;3.00;;
22320;SDS011;11328;53.928;18.522;2023-05-07T14:45:49;5.88;;;2.42;;
22320;SDS011;11328;53.928;18.522;2023-05-07T14:48:16;9.05;;;2.95;;
22320;SDS011;11328;53.928;18.522;2023-05-07T14:50:47;7.95;;;2.53;;
22320;SDS011;11328;53.928;18.522;2023-05-07T14:53:15;9.43;;;2.80;;
22320;SDS011;11328;53.928;18.522;2023-05-07T14:55:42;12.00;;;3.13;;